Time;durP1;ratioP1;P1;durP2;ratioP2;P2;SDS_P1;SDS_P2;PMS_P1;PMS_P2;Temp;Humidity;BMP_temperature;BMP_pressure;BME280_temperature;BME280_humidity;BME280_pressure;Samples;Min_cycle;Max_cycle;Signal;HPM_P1;HPM_P2
2021/07/16 00:00:40;;;;;;;11.00;6.43;;;;;;;;;;5082641;28;20221;-78
2021/07/16 00:03:06;;;;;;;8.53;6.70;;;;;;;;;;5082045;28;20179;-78
2021/07/16 00:05:38;;;;;;;9.97;5.97;;;;;;;;;;5080006;28;20793;-78
2021/07/16 00:08:05;;;;;;;10.83;6.63;;;;;;;;;;5078905;28;20207;-78
2021/07/16 00:10:31;;;;;;;12.97;7.07;;;;;;;;;;5057527;28;20215;-78
2021/07/16 00:12:57;;;;;;;11.67;6.43;;;;;;;;;;5073770;28;20183;-78
2021/07/16 00:15:23;;;;;;;7.50;5.67;;;;;;;;;;5073901;28;20196;-78
2021/07/16 00:17:49;;;;;;;10.10;6.37;;;;;;;;;;5056519;28;20176;-77
2021/07/16 00:20:16;;;;;;;8.13;6.97;;;;;;;;;;5056648;28;20234;-78
2021/07/16 00:22:42;;;;;;;8.40;6.27;;;;;;;;;;5054877;28;20168;-78
2021/07/16 00:25:09;;;;;;;8.83;6.80;;;;;;;;;;5055616;28;20185;-78
2021/07/16 00:27:35;;;;;;;8.83;6.67;;;;;;;;;;5055342;28;20647;-78
2021/07/16 00:30:02;;;;;;;11.70;7.30;;;;;;;;;;5072820;28;20768;-78
2021/07/16 00:32:28;;;;;;;12.53;8.13;;;;;;;;;;5072539;28;20188;-78
2021/07/16 00:34:54;;;;;;;8.30;5.63;;;;;;;;;;5055497;28;20188;-78
2021/07/16 00:37:20;;;;;;;8.43;6.13;;;;;;;;;;5072787;28;20183;-78
2021/07/16 00:39:46;;;;;;;11.13;6.73;;;;;;;;;;5076414;28;20352;-78
2021/07/16 00:42:12;;;;;;;11.07;6.57;;;;;;;;;;5076927;28;20350;-78
2021/07/16 00:44:38;;;;;;;9.97;6.37;;;;;;;;;;5094852;28;20164;-77
2021/07/16 00:47:05;;;;;;;6.50;5.80;;;;;;;;;;5094824;28;20190;-78
2021/07/16 00:49:32;;;;;;;7.80;6.30;;;;;;;;;;5095548;28;20152;-78
2021/07/16 00:51:58;;;;;;;8.80;6.57;;;;;;;;;;5077244;28;20262;-78
2021/07/16 00:54:24;;;;;;;8.57;6.97;;;;;;;;;;5095131;28;20242;-78
2021/07/16 00:56:51;;;;;;;8.83;6.17;;;;;;;;;;5076326;28;20190;-78
2021/07/16 00:59:17;;;;;;;11.07;7.40;;;;;;;;;;5075945;28;20187;-78
2021/07/16 01:01:45;;;;;;;7.60;6.07;;;;;;;;;;5076173;28;20646;-78
2021/07/16 01:04:11;;;;;;;8.13;6.73;;;;;;;;;;5076255;28;20211;-78
2021/07/16 01:06:38;;;;;;;9.80;6.73;;;;;;;;;;5075850;28;20188;-78
2021/07/16 01:09:04;;;;;;;8.10;6.17;;;;;;;;;;5094651;28;20267;-78
2021/07/16 01:11:30;;;;;;;10.23;6.30;;;;;;;;;;5094388;28;20172;-78
2021/07/16 01:13:56;;;;;;;9.23;6.23;;;;;;;;;;5075508;28;20176;-78
2021/07/16 01:16:22;;;;;;;10.90;6.10;;;;;;;;;;5076015;28;20186;-78
2021/07/16 01:18:48;;;;;;;10.77;6.60;;;;;;;;;;5094103;28;20260;-78
2021/07/16 01:21:15;;;;;;;9.07;6.47;;;;;;;;;;5075285;28;20200;-78
2021/07/16 01:23:42;;;;;;;9.80;5.90;;;;;;;;;;5094471;28;20681;-78
2021/07/16 01:26:08;;;;;;;8.73;6.37;;;;;;;;;;5076229;28;20176;-78
2021/07/16 01:28:40;;;;;;;7.77;5.30;;;;;;;;;;5077133;28;20715;-78
2021/07/16 01:31:07;;;;;;;7.47;5.70;;;;;;;;;;5076226;28;20188;-78
2021/07/16 01:33:33;;;;;;;7.57;5.53;;;;;;;;;;5094526;28;20176;-78
2021/07/16 01:35:59;;;;;;;10.20;5.20;;;;;;;;;;5076259;28;20636;-78
2021/07/16 01:38:26;;;;;;;9.95;6.22;;;;;;;;;;5094760;28;20412;-78
2021/07/16 01:40:52;;;;;;;9.87;5.23;;;;;;;;;;5075688;28;20202;-78
2021/07/16 01:43:18;;;;;;;7.27;5.20;;;;;;;;;;5075564;28;20270;-78
2021/07/16 01:45:44;;;;;;;8.67;5.30;;;;;;;;;;5075562;28;20181;-78
2021/07/16 01:48:14;;;;;;;7.57;5.50;;;;;;;;;;5075631;28;20200;-78
2021/07/16 01:50:42;;;;;;;6.77;5.20;;;;;;;;;;5093600;28;20612;-78
2021/07/16 01:53:09;;;;;;;12.27;7.00;;;;;;;;;;5094096;28;20266;-78
2021/07/16 01:55:37;;;;;;;11.13;6.60;;;;;;;;;;5075370;28;20281;-78
2021/07/16 01:58:05;;;;;;;10.00;5.97;;;;;;;;;;5075446;28;20578;-78
2021/07/16 02:00:33;;;;;;;9.43;5.47;;;;;;;;;;5093659;28;20235;-78
2021/07/16 02:03:00;;;;;;;8.33;6.10;;;;;;;;;;5075842;28;20536;-77
2021/07/16 02:05:27;;;;;;;10.20;5.90;;;;;;;;;;5075449;28;20185;-78
2021/07/16 02:07:54;;;;;;;6.67;5.60;;;;;;;;;;5093004;28;20195;-78
2021/07/16 02:10:20;;;;;;;9.77;6.07;;;;;;;;;;5093227;28;20176;-78
2021/07/16 02:12:46;;;;;;;12.70;6.50;;;;;;;;;;5093277;28;20184;-78
2021/07/16 02:15:15;;;;;;;10.87;6.37;;;;;;;;;;5093049;28;20638;-78
2021/07/16 02:17:41;;;;;;;10.23;6.57;;;;;;;;;;5075296;28;20225;-78
2021/07/16 02:20:27;;;;;;;9.33;6.70;;;;;;;;;;5093435;28;20223;-78
2021/07/16 02:22:54;;;;;;;10.20;7.07;;;;;;;;;;5093005;28;20168;-78
2021/07/16 02:25:21;;;;;;;9.90;6.30;;;;;;;;;;5075334;28;20546;-78
2021/07/16 02:27:48;;;;;;;12.93;6.77;;;;;;;;;;5093240;28;20306;-78
2021/07/16 02:30:15;;;;;;;7.43;6.43;;;;;;;;;;5092796;28;20172;-78
2021/07/16 02:32:42;;;;;;;9.37;7.20;;;;;;;;;;5093116;28;20623;-78
2021/07/16 02:35:08;;;;;;;9.67;6.80;;;;;;;;;;5093516;28;20201;-78
2021/07/16 02:37:34;;;;;;;12.33;6.87;;;;;;;;;;5074105;28;20269;-78
2021/07/16 02:40:01;;;;;;;15.60;7.33;;;;;;;;;;5092571;28;20210;-78
2021/07/16 02:42:27;;;;;;;15.57;7.43;;;;;;;;;;5092467;28;20217;-78
2021/07/16 02:44:53;;;;;;;10.57;6.97;;;;;;;;;;5074466;28;20179;-78
2021/07/16 02:47:19;;;;;;;10.30;6.73;;;;;;;;;;5074538;28;20175;-78
2021/07/16 02:49:45;;;;;;;15.00;7.23;;;;;;;;;;5074330;28;20172;-78
2021/07/16 02:52:11;;;;;;;13.37;7.03;;;;;;;;;;5091678;28;20195;-78
2021/07/16 02:54:37;;;;;;;15.00;6.77;;;;;;;;;;5073953;28;20223;-78
2021/07/16 02:57:03;;;;;;;10.30;6.47;;;;;;;;;;5073722;28;20692;-78
2021/07/16 02:59:29;;;;;;;8.53;7.00;;;;;;;;;;5092033;28;20176;-77
2021/07/16 03:01:55;;;;;;;9.80;6.73;;;;;;;;;;5092931;28;20192;-78
2021/07/16 03:04:22;;;;;;;8.30;6.40;;;;;;;;;;5092617;28;20203;-78
2021/07/16 03:06:48;;;;;;;12.03;6.97;;;;;;;;;;5091989;28;20575;-78
2021/07/16 03:09:14;;;;;;;9.30;6.47;;;;;;;;;;5093052;28;20168;-78
2021/07/16 03:11:40;;;;;;;12.23;6.50;;;;;;;;;;5092063;28;20257;-78
2021/07/16 03:14:06;;;;;;;12.17;6.77;;;;;;;;;;5074283;28;20184;-78
2021/07/16 03:16:32;;;;;;;10.17;5.90;;;;;;;;;;5074286;28;20228;-78
2021/07/16 03:18:58;;;;;;;11.13;6.37;;;;;;;;;;5092604;28;20176;-78
2021/07/16 03:21:25;;;;;;;9.53;6.00;;;;;;;;;;5073739;28;20199;-78
2021/07/16 03:23:51;;;;;;;8.83;6.43;;;;;;;;;;5096217;28;20636;-78
2021/07/16 03:26:17;;;;;;;5.83;5.30;;;;;;;;;;5078482;28;20189;-78
2021/07/16 03:28:43;;;;;;;9.23;6.63;;;;;;;;;;5078711;28;20592;-78
2021/07/16 03:31:09;;;;;;;10.73;5.80;;;;;;;;;;5078139;28;20183;-78
2021/07/16 03:33:35;;;;;;;9.90;6.07;;;;;;;;;;5096766;28;20187;-78
2021/07/16 03:36:01;;;;;;;11.67;6.07;;;;;;;;;;5078299;28;20188;-78
2021/07/16 03:38:28;;;;;;;8.57;6.70;;;;;;;;;;5078195;28;20180;-78
2021/07/16 03:40:56;;;;;;;12.43;6.18;;;;;;;;;;5077035;28;20442;-78
2021/07/16 03:43:22;;;;;;;8.87;5.73;;;;;;;;;;5096210;28;20582;-78
2021/07/16 03:45:48;;;;;;;8.00;5.93;;;;;;;;;;5095923;28;20175;-78
2021/07/16 03:48:15;;;;;;;9.00;5.93;;;;;;;;;;5076908;28;20271;-78
2021/07/16 03:50:41;;;;;;;9.50;6.07;;;;;;;;;;5077076;28;20225;-78
2021/07/16 03:53:07;;;;;;;10.63;5.57;;;;;;;;;;5096194;28;20636;-78
2021/07/16 03:55:33;;;;;;;7.73;5.20;;;;;;;;;;5077131;28;20272;-77
2021/07/16 03:57:59;;;;;;;6.97;5.53;;;;;;;;;;5095772;28;20525;-77
2021/07/16 04:00:28;;;;;;;7.27;5.23;;;;;;;;;;5096291;28;20559;-78
2021/07/16 04:02:55;;;;;;;6.47;5.30;;;;;;;;;;5078011;28;20176;-78
2021/07/16 04:05:21;;;;;;;8.20;5.73;;;;;;;;;;5095970;28;20618;-78
2021/07/16 04:07:49;;;;;;;6.57;4.67;;;;;;;;;;5077323;28;20223;-78
2021/07/16 04:10:16;;;;;;;8.10;5.53;;;;;;;;;;5095806;28;20561;-78
2021/07/16 04:12:43;;;;;;;5.80;4.73;;;;;;;;;;5077723;28;20179;-78
2021/07/16 04:15:10;;;;;;;7.57;5.10;;;;;;;;;;5078395;28;20176;-78
2021/07/16 04:17:36;;;;;;;7.73;4.97;;;;;;;;;;5096470;28;20178;-78
2021/07/16 04:20:02;;;;;;;9.27;5.00;;;;;;;;;;5096821;28;20944;-78
2021/07/16 04:22:28;;;;;;;8.32;5.93;;;;;;;;;;5094711;28;20475;-78
2021/07/16 04:24:54;;;;;;;6.83;5.37;;;;;;;;;;5077857;28;20257;-78
2021/07/16 04:27:20;;;;;;;6.30;4.57;;;;;;;;;;5077859;28;20624;-78
2021/07/16 04:29:46;;;;;;;8.03;4.97;;;;;;;;;;5095869;28;20245;-78
2021/07/16 04:32:13;;;;;;;9.07;5.27;;;;;;;;;;5095147;28;20532;-78
2021/07/16 04:34:40;;;;;;;6.47;4.80;;;;;;;;;;5076616;28;20679;-77
2021/07/16 04:37:06;;;;;;;6.13;4.60;;;;;;;;;;5076548;28;20186;-78
2021/07/16 04:39:33;;;;;;;7.63;5.73;;;;;;;;;;5095250;28;20175;-78
2021/07/16 04:41:59;;;;;;;6.50;5.90;;;;;;;;;;5094843;28;20684;-78
2021/07/16 04:44:25;;;;;;;10.43;6.30;;;;;;;;;;5095099;28;20167;-78
2021/07/16 04:46:51;;;;;;;8.23;5.23;;;;;;;;;;5094504;28;20163;-78
2021/07/16 04:49:17;;;;;;;10.40;5.27;;;;;;;;;;5094750;28;20171;-78
2021/07/16 04:51:44;;;;;;;8.07;5.87;;;;;;;;;;5094537;28;20267;-78
2021/07/16 04:54:12;;;;;;;10.87;5.70;;;;;;;;;;5094302;28;20538;-77
2021/07/16 04:56:38;;;;;;;9.73;6.40;;;;;;;;;;5094326;28;20178;-78
2021/07/16 04:59:04;;;;;;;6.60;5.27;;;;;;;;;;5076868;28;20183;-78
2021/07/16 05:01:30;;;;;;;11.00;6.27;;;;;;;;;;5075719;28;20213;-78
2021/07/16 05:03:56;;;;;;;9.47;6.33;;;;;;;;;;5076841;28;20175;-78
2021/07/16 05:06:25;;;;;;;11.60;6.53;;;;;;;;;;5093947;28;20549;-78
2021/07/16 05:08:51;;;;;;;11.00;5.97;;;;;;;;;;5076049;28;20376;-78
2021/07/16 05:11:18;;;;;;;11.83;6.67;;;;;;;;;;5094344;28;20630;-78
2021/07/16 05:13:44;;;;;;;9.47;6.00;;;;;;;;;;5094352;28;20232;-78
2021/07/16 05:16:11;;;;;;;10.90;6.10;;;;;;;;;;5094673;28;20168;-78
2021/07/16 05:18:38;;;;;;;8.63;5.57;;;;;;;;;;5094104;28;20169;-77
2021/07/16 05:21:05;;;;;;;8.00;5.77;;;;;;;;;;5093323;28;20231;-78
2021/07/16 05:23:31;;;;;;;8.77;5.60;;;;;;;;;;5075766;28;20182;-77
2021/07/16 05:25:57;;;;;;;9.93;6.33;;;;;;;;;;5076105;28;20195;-77
2021/07/16 05:28:24;;;;;;;10.63;6.07;;;;;;;;;;5075708;28;20682;-78
2021/07/16 05:30:50;;;;;;;7.13;5.47;;;;;;;;;;5093862;28;20544;-77
2021/07/16 05:33:16;;;;;;;11.63;6.10;;;;;;;;;;5075784;28;20176;-78
2021/07/16 05:35:43;;;;;;;10.00;5.93;;;;;;;;;;5093610;28;20172;-77
2021/07/16 05:38:09;;;;;;;11.87;6.30;;;;;;;;;;5075535;28;20184;-78
2021/07/16 05:40:36;;;;;;;8.87;5.77;;;;;;;;;;5075948;28;20223;-78
2021/07/16 05:43:09;;;;;;;11.43;6.80;;;;;;;;;;5093381;28;20180;-78
2021/07/16 05:45:38;;;;;;;9.50;5.90;;;;;;;;;;5093423;28;20543;-78
2021/07/16 05:48:05;;;;;;;9.23;6.17;;;;;;;;;;5093320;28;20679;-78
2021/07/16 05:50:31;;;;;;;9.30;6.57;;;;;;;;;;5093563;28;20203;-78
2021/07/16 05:52:57;;;;;;;10.67;6.33;;;;;;;;;;5074639;28;20187;-78
2021/07/16 05:55:24;;;;;;;12.00;6.40;;;;;;;;;;5093276;28;20670;-77
2021/07/16 05:57:50;;;;;;;10.40;6.00;;;;;;;;;;5074712;28;20182;-78
2021/07/16 06:00:16;;;;;;;11.47;5.63;;;;;;;;;;5074904;28;20215;-78
2021/07/16 06:02:49;;;;;;;10.97;6.83;;;;;;;;;;5093446;28;20172;-78
2021/07/16 06:05:18;;;;;;;11.27;6.27;;;;;;;;;;5075121;28;20176;-78
2021/07/16 06:07:47;;;;;;;10.47;7.27;;;;;;;;;;5077374;28;20192;-81
2021/07/16 06:10:14;;;;;;;10.17;6.67;;;;;;;;;;5095423;28;20171;-81
2021/07/16 06:12:40;;;;;;;8.77;6.30;;;;;;;;;;5076232;28;20203;-81
2021/07/16 06:15:13;;;;;;;12.57;6.93;;;;;;;;;;5076871;28;20168;-81
2021/07/16 06:17:39;;;;;;;10.20;7.87;;;;;;;;;;5077082;28;20176;-81
2021/07/16 06:20:09;;;;;;;9.23;6.60;;;;;;;;;;5075894;28;20168;-80
2021/07/16 06:22:36;;;;;;;13.30;6.77;;;;;;;;;;5076476;28;20637;-80
2021/07/16 06:25:03;;;;;;;18.37;7.27;;;;;;;;;;5076776;28;20180;-80
2021/07/16 06:27:29;;;;;;;12.30;6.77;;;;;;;;;;5095318;28;20642;-81
2021/07/16 06:29:55;;;;;;;9.20;7.30;;;;;;;;;;5095170;28;20172;-82
2021/07/16 06:32:21;;;;;;;9.60;6.97;;;;;;;;;;5075552;28;20230;-81
2021/07/16 06:34:47;;;;;;;12.03;7.93;;;;;;;;;;5075142;28;20756;-81
2021/07/16 06:37:13;;;;;;;11.67;7.50;;;;;;;;;;5073977;28;20186;-80
2021/07/16 06:39:39;;;;;;;10.77;6.93;;;;;;;;;;5074841;28;20184;-81
2021/07/16 06:42:08;;;;;;;14.47;7.87;;;;;;;;;;5073297;28;20215;-80
2021/07/16 06:44:34;;;;;;;14.17;6.97;;;;;;;;;;5074301;28;20645;-80
2021/07/16 06:47:00;;;;;;;9.60;7.37;;;;;;;;;;5072937;28;20171;-80
2021/07/16 06:49:27;;;;;;;11.33;7.63;;;;;;;;;;5073901;28;20376;-80
2021/07/16 06:51:57;;;;;;;11.50;7.67;;;;;;;;;;5073908;28;20654;-81
2021/07/16 06:54:24;;;;;;;14.33;8.07;;;;;;;;;;5073592;28;20222;-80
2021/07/16 06:56:50;;;;;;;12.17;7.53;;;;;;;;;;5073513;28;20245;-80
2021/07/16 06:59:16;;;;;;;11.60;7.03;;;;;;;;;;5071893;28;20215;-80
2021/07/16 07:01:42;;;;;;;12.70;7.43;;;;;;;;;;5071617;28;20234;-80
2021/07/16 07:04:08;;;;;;;8.63;6.60;;;;;;;;;;5071867;28;20174;-80
2021/07/16 07:06:34;;;;;;;13.05;7.85;;;;;;;;;;5066966;28;20411;-80
2021/07/16 07:09:00;;;;;;;12.27;6.50;;;;;;;;;;5085118;28;20689;-81
2021/07/16 07:11:26;;;;;;;10.90;6.53;;;;;;;;;;5068409;28;20176;-80
2021/07/16 07:13:52;;;;;;;10.77;6.50;;;;;;;;;;5070919;28;20693;-80
2021/07/16 07:16:18;;;;;;;17.27;6.83;;;;;;;;;;5071062;28;20753;-80
2021/07/16 07:18:44;;;;;;;12.17;6.43;;;;;;;;;;5070764;28;20987;-80
2021/07/16 07:21:11;;;;;;;10.73;6.27;;;;;;;;;;5069458;28;20582;-80
2021/07/16 07:23:37;;;;;;;12.63;7.13;;;;;;;;;;5068258;28;20462;-80
2021/07/16 07:26:03;;;;;;;11.40;6.60;;;;;;;;;;5069246;28;20165;-80
2021/07/16 07:28:29;;;;;;;11.43;6.33;;;;;;;;;;5069545;28;20173;-80
2021/07/16 07:30:55;;;;;;;9.97;6.90;;;;;;;;;;5069029;28;20239;-80
2021/07/16 07:33:21;;;;;;;13.03;6.20;;;;;;;;;;5068296;28;20177;-80
2021/07/16 07:35:47;;;;;;;10.50;6.43;;;;;;;;;;5086522;28;20522;-80
2021/07/16 07:38:13;;;;;;;8.73;5.90;;;;;;;;;;5070687;28;20547;-80
2021/07/16 07:40:41;;;;;;;14.23;7.07;;;;;;;;;;5069872;28;20196;-80
2021/07/16 07:43:07;;;;;;;11.23;7.07;;;;;;;;;;5071567;28;20256;-80
2021/07/16 07:45:33;;;;;;;9.63;6.30;;;;;;;;;;5069862;28;20172;-80
2021/07/16 07:47:59;;;;;;;16.87;7.77;;;;;;;;;;5071114;28;20196;-80
2021/07/16 07:50:25;;;;;;;11.10;7.07;;;;;;;;;;5069635;28;20181;-80
2021/07/16 07:52:51;;;;;;;13.40;7.97;;;;;;;;;;5086581;28;20204;-80
2021/07/16 07:55:19;;;;;;;9.93;6.37;;;;;;;;;;5081394;28;20231;-80
2021/07/16 07:57:45;;;;;;;13.80;6.60;;;;;;;;;;5073156;28;20176;-80
2021/07/16 08:00:13;;;;;;;9.13;7.23;;;;;;;;;;5073410;28;20713;-79
2021/07/16 08:02:39;;;;;;;12.97;6.67;;;;;;;;;;5072986;28;20175;-80
2021/07/16 08:05:05;;;;;;;12.30;7.57;;;;;;;;;;5073702;28;20172;-80
2021/07/16 08:07:31;;;;;;;11.30;7.10;;;;;;;;;;5090754;28;20608;-80
2021/07/16 08:09:57;;;;;;;10.57;6.87;;;;;;;;;;5074984;28;20312;-80
2021/07/16 08:12:23;;;;;;;8.57;6.50;;;;;;;;;;5076695;28;20645;-80
2021/07/16 08:14:49;;;;;;;13.60;7.70;;;;;;;;;;5094756;28;20172;-80
2021/07/16 08:17:16;;;;;;;11.60;7.80;;;;;;;;;;5094380;28;20165;-80
2021/07/16 08:19:42;;;;;;;13.30;8.03;;;;;;;;;;5094605;28;20182;-80
2021/07/16 08:22:08;;;;;;;10.13;6.93;;;;;;;;;;5094212;28;20249;-80
2021/07/16 08:24:34;;;;;;;10.57;7.03;;;;;;;;;;5094794;28;20229;-80
2021/07/16 08:27:00;;;;;;;14.23;6.77;;;;;;;;;;5094668;28;20168;-80
2021/07/16 08:29:26;;;;;;;13.17;7.00;;;;;;;;;;5076110;28;20193;-80
2021/07/16 08:31:52;;;;;;;10.07;6.43;;;;;;;;;;5076132;28;20634;-80
2021/07/16 08:34:18;;;;;;;13.40;6.63;;;;;;;;;;5076621;28;20186;-80
2021/07/16 08:36:44;;;;;;;10.33;6.90;;;;;;;;;;5076066;28;20585;-80
2021/07/16 08:39:11;;;;;;;11.33;6.53;;;;;;;;;;5094732;28;20715;-80
2021/07/16 08:41:37;;;;;;;12.07;6.53;;;;;;;;;;5075844;28;20219;-80
2021/07/16 08:44:03;;;;;;;11.40;6.10;;;;;;;;;;5087415;28;20255;-80
2021/07/16 08:46:29;;;;;;;9.80;6.00;;;;;;;;;;5073087;28;20180;-80
2021/07/16 08:48:58;;;;;;;12.53;6.67;;;;;;;;;;5074307;28;20169;-80
2021/07/16 08:51:24;;;;;;;10.33;6.47;;;;;;;;;;5071840;28;20184;-80
2021/07/16 08:53:52;;;;;;;12.30;6.67;;;;;;;;;;5073961;28;20176;-80
2021/07/16 08:56:18;;;;;;;10.40;6.37;;;;;;;;;;5073881;28;20650;-80
2021/07/16 08:58:44;;;;;;;14.90;6.80;;;;;;;;;;5072580;28;20210;-80
2021/07/16 09:01:11;;;;;;;9.70;6.07;;;;;;;;;;5072152;28;20208;-80
2021/07/16 09:03:55;;;;;;;12.73;6.17;;;;;;;;;;5072641;28;20172;-80
2021/07/16 09:06:41;;;;;;;12.50;6.70;;;;;;;;;;5073478;28;20207;-80
2021/07/16 09:09:07;;;;;;;8.80;5.87;;;;;;;;;;5072048;28;20175;-80
2021/07/16 09:11:38;;;;;;;11.32;6.75;;;;;;;;;;5072771;28;20764;-80
2021/07/16 09:14:04;;;;;;;9.57;6.40;;;;;;;;;;5071926;28;20181;-80
2021/07/16 09:16:30;;;;;;;15.03;5.83;;;;;;;;;;5073366;28;20172;-80
2021/07/16 09:18:59;;;;;;;9.40;6.10;;;;;;;;;;5072181;28;20635;-80
2021/07/16 09:21:26;;;;;;;8.70;5.27;;;;;;;;;;5072519;28;20196;-80
2021/07/16 09:23:52;;;;;;;10.20;5.53;;;;;;;;;;5073397;28;20605;-80
2021/07/16 09:26:26;;;;;;;7.77;4.97;;;;;;;;;;5071963;28;20203;-80
2021/07/16 09:28:53;;;;;;;8.50;4.73;;;;;;;;;;5072243;28;20171;-80
2021/07/16 09:31:19;;;;;;;7.70;5.07;;;;;;;;;;5071137;28;20181;-80
2021/07/16 09:33:50;;;;;;;10.37;5.10;;;;;;;;;;5074935;28;20615;-80
2021/07/16 09:36:27;;;;;;;8.77;4.97;;;;;;;;;;5074336;28;20186;-80
2021/07/16 09:39:13;;;;;;;9.93;4.37;;;;;;;;;;5093505;28;20172;-80
2021/07/16 09:41:50;;;;;;;9.57;5.60;;;;;;;;;;5074437;28;20285;-80
2021/07/16 09:44:26;;;;;;;9.53;5.30;;;;;;;;;;5075250;28;20171;-80
2021/07/16 09:47:16;;;;;;;12.47;5.40;;;;;;;;;;5093601;28;20622;-80
2021/07/16 09:49:43;;;;;;;8.70;5.07;;;;;;;;;;5085713;28;20176;-80
2021/07/16 09:52:14;;;;;;;11.10;5.37;;;;;;;;;;5074471;28;20203;-80
2021/07/16 09:55:00;;;;;;;9.10;4.93;;;;;;;;;;5074545;28;20277;-80
2021/07/16 09:57:41;;;;;;;10.63;5.53;;;;;;;;;;5093582;28;20529;-80
2021/07/16 10:00:12;;;;;;;8.43;5.20;;;;;;;;;;5092830;28;20254;-80
2021/07/16 10:02:38;;;;;;;9.13;5.77;;;;;;;;;;5074632;28;20176;-80
2021/07/16 10:05:05;;;;;;;11.10;5.67;;;;;;;;;;5093110;28;20182;-80
2021/07/16 10:07:31;;;;;;;11.17;6.60;;;;;;;;;;5074114;28;20188;-80
2021/07/16 10:09:57;;;;;;;9.03;5.77;;;;;;;;;;5074084;28;20179;-80
2021/07/16 10:12:23;;;;;;;13.30;7.23;;;;;;;;;;5074090;28;20538;-80
2021/07/16 10:14:49;;;;;;;13.63;7.27;;;;;;;;;;5074399;28;20187;-80
2021/07/16 10:17:16;;;;;;;13.70;7.20;;;;;;;;;;5092790;28;20171;-80
2021/07/16 10:19:42;;;;;;;12.17;6.97;;;;;;;;;;5074166;28;20184;-80
2021/07/16 10:22:08;;;;;;;12.13;7.20;;;;;;;;;;5092227;28;20282;-80
2021/07/16 10:24:36;;;;;;;8.63;6.93;;;;;;;;;;5074241;28;20264;-80
2021/07/16 10:27:03;;;;;;;10.80;7.30;;;;;;;;;;5092186;28;20168;-80
2021/07/16 10:29:34;;;;;;;9.93;7.17;;;;;;;;;;5092531;28;20167;-80
2021/07/16 10:32:00;;;;;;;10.40;6.73;;;;;;;;;;5091968;28;20251;-80
2021/07/16 10:34:29;;;;;;;11.97;6.33;;;;;;;;;;5074431;28;20171;-80
2021/07/16 10:37:14;;;;;;;11.77;7.37;;;;;;;;;;5073748;28;20199;-80
2021/07/16 10:39:40;;;;;;;14.63;8.60;;;;;;;;;;5074255;28;20618;-80
2021/07/16 10:42:24;;;;;;;12.23;7.17;;;;;;;;;;5074071;28;20198;-80
2021/07/16 10:44:51;;;;;;;12.20;6.70;;;;;;;;;;5074202;28;20197;-80
2021/07/16 10:47:32;;;;;;;14.30;7.17;;;;;;;;;;5073817;28;20175;-80
2021/07/16 10:49:58;;;;;;;16.30;6.73;;;;;;;;;;5073713;28;20182;-80
2021/07/16 10:52:44;;;;;;;9.30;6.57;;;;;;;;;;5073568;28;20258;-80
2021/07/16 10:55:11;;;;;;;16.00;6.87;;;;;;;;;;5073707;28;20644;-80
2021/07/16 10:57:44;;;;;;;13.77;7.03;;;;;;;;;;5091559;28;20661;-80
2021/07/16 11:00:13;;;;;;;14.67;7.27;;;;;;;;;;5073713;28;20180;-80
2021/07/16 11:02:39;;;;;;;13.10;6.80;;;;;;;;;;5074418;28;20536;-80
2021/07/16 11:05:24;;;;;;;10.40;6.73;;;;;;;;;;5092776;28;20175;-80
2021/07/16 11:07:50;;;;;;;12.53;6.57;;;;;;;;;;5092097;28;20187;-80
2021/07/16 11:10:35;;;;;;;11.03;6.17;;;;;;;;;;5074367;28;20583;-80
2021/07/16 11:13:20;;;;;;;11.97;5.97;;;;;;;;;;5074696;28;20172;-80
2021/07/16 11:15:46;;;;;;;11.73;7.57;;;;;;;;;;5074422;28;20182;-80
2021/07/16 11:18:26;;;;;;;17.80;8.17;;;;;;;;;;5092866;28;20163;-80
2021/07/16 11:20:52;;;;;;;12.93;7.70;;;;;;;;;;5092508;28;20187;-80
2021/07/16 11:23:19;;;;;;;18.57;8.03;;;;;;;;;;5074369;28;20171;-80
2021/07/16 11:25:46;;;;;;;14.83;7.97;;;;;;;;;;5074175;28;20184;-80
2021/07/16 11:28:12;;;;;;;12.20;8.40;;;;;;;;;;5074286;28;20183;-80
2021/07/16 11:30:38;;;;;;;12.17;8.70;;;;;;;;;;5092825;28;20168;-80
2021/07/16 11:33:06;;;;;;;12.77;7.70;;;;;;;;;;5092569;28;20263;-81
2021/07/16 11:35:33;;;;;;;10.13;6.67;;;;;;;;;;5074332;28;20245;-80
2021/07/16 11:38:05;;;;;;;14.43;6.70;;;;;;;;;;5074062;28;20599;-80
2021/07/16 11:40:31;;;;;;;14.30;7.13;;;;;;;;;;5074489;28;20192;-80
2021/07/16 11:42:58;;;;;;;16.20;7.77;;;;;;;;;;5074194;28;20176;-80
2021/07/16 11:45:25;;;;;;;11.97;7.20;;;;;;;;;;5077177;28;20180;-80
2021/07/16 11:47:52;;;;;;;18.80;7.10;;;;;;;;;;5078695;28;20179;-80
2021/07/16 11:50:18;;;;;;;18.23;6.73;;;;;;;;;;5098077;28;20167;-80
2021/07/16 11:52:47;;;;;;;12.77;6.83;;;;;;;;;;5079515;28;20172;-80
2021/07/16 11:55:24;;;;;;;12.18;5.68;;;;;;;;;;5079587;28;20783;-80
2021/07/16 11:57:57;;;;;;;17.20;6.57;;;;;;;;;;5097551;28;20197;-81
2021/07/16 12:00:25;;;;;;;17.03;6.80;;;;;;;;;;5096779;28;20191;-80
2021/07/16 12:02:51;;;;;;;13.50;5.77;;;;;;;;;;5078376;28;20168;-80
2021/07/16 12:05:21;;;;;;;14.77;5.70;;;;;;;;;;5078663;28;20218;-81
2021/07/16 12:07:48;;;;;;;11.50;5.80;;;;;;;;;;5078325;28;20201;-80
2021/07/16 12:10:15;;;;;;;11.57;5.57;;;;;;;;;;5078801;28;20562;-80
2021/07/16 12:12:42;;;;;;;14.43;5.17;;;;;;;;;;5096846;28;20183;-80
2021/07/16 12:15:19;;;;;;;14.37;5.77;;;;;;;;;;5078361;28;20179;-80
2021/07/16 12:17:52;;;;;;;11.20;5.40;;;;;;;;;;5096766;28;20225;-80
2021/07/16 12:20:19;;;;;;;13.93;5.83;;;;;;;;;;5096518;28;20493;-80
2021/07/16 12:22:47;;;;;;;14.03;5.73;;;;;;;;;;5077931;28;20172;-80
2021/07/16 12:25:13;;;;;;;11.57;4.90;;;;;;;;;;5078358;28;20180;-80
2021/07/16 12:27:40;;;;;;;12.37;4.97;;;;;;;;;;5096502;28;20624;-80
2021/07/16 12:30:10;;;;;;;14.73;5.57;;;;;;;;;;5096451;28;20165;-80
2021/07/16 12:32:40;;;;;;;14.53;6.93;;;;;;;;;;5076934;28;20187;-80
2021/07/16 12:35:16;;;;;;;11.27;5.60;;;;;;;;;;5076863;28;20416;-80
2021/07/16 12:37:43;;;;;;;9.77;4.63;;;;;;;;;;5076241;28;20183;-80
2021/07/16 12:40:10;;;;;;;13.37;5.07;;;;;;;;;;5076829;28;20526;-80
2021/07/16 12:42:36;;;;;;;10.07;5.07;;;;;;;;;;5076279;28;20206;-80
2021/07/16 12:45:04;;;;;;;12.33;5.13;;;;;;;;;;5077219;28;20571;-80
2021/07/16 12:47:30;;;;;;;10.83;5.27;;;;;;;;;;5076549;28;20504;-80
2021/07/16 12:50:10;;;;;;;10.10;4.87;;;;;;;;;;5076260;28;20180;-80
2021/07/16 12:52:36;;;;;;;15.30;5.60;;;;;;;;;;5075949;28;20233;-80
2021/07/16 12:55:12;;;;;;;8.30;4.93;;;;;;;;;;5076179;28;20225;-80
2021/07/16 12:57:38;;;;;;;12.57;5.80;;;;;;;;;;5076070;28;20236;-80
2021/07/16 13:00:16;;;;;;;13.50;6.30;;;;;;;;;;5094303;28;20180;-80
2021/07/16 13:02:42;;;;;;;12.17;5.10;;;;;;;;;;5076161;28;20221;-80
2021/07/16 13:05:08;;;;;;;13.00;6.20;;;;;;;;;;5076301;28;20164;-80
2021/07/16 13:07:34;;;;;;;9.03;5.80;;;;;;;;;;5075329;28;20245;-80
2021/07/16 13:10:01;;;;;;;11.10;5.23;;;;;;;;;;5094248;28;20531;-80
2021/07/16 13:12:33;;;;;;;8.90;4.83;;;;;;;;;;5076064;28;20187;-80
2021/07/16 13:15:04;;;;;;;11.47;6.93;;;;;;;;;;5094313;28;20279;-80
2021/07/16 13:17:36;;;;;;;6.67;4.73;;;;;;;;;;5075705;28;20180;-80
2021/07/16 13:20:07;;;;;;;11.10;5.37;;;;;;;;;;5075900;28;20208;-80
2021/07/16 13:22:34;;;;;;;10.00;5.13;;;;;;;;;;5093437;28;20204;-80
2021/07/16 13:25:01;;;;;;;13.47;5.03;;;;;;;;;;5076066;28;20190;-80
2021/07/16 13:27:28;;;;;;;10.03;5.50;;;;;;;;;;5093856;28;20168;-80
2021/07/16 13:29:54;;;;;;;9.73;4.87;;;;;;;;;;5075723;28;20178;-80
2021/07/16 13:32:21;;;;;;;11.27;5.17;;;;;;;;;;5075185;28;20180;-80
2021/07/16 13:34:47;;;;;;;10.43;5.10;;;;;;;;;;5075162;28;20199;-80
2021/07/16 13:37:13;;;;;;;12.97;5.17;;;;;;;;;;5075103;28;20183;-80
2021/07/16 13:39:39;;;;;;;8.13;4.77;;;;;;;;;;5093570;28;20176;-80
2021/07/16 13:42:06;;;;;;;9.90;4.87;;;;;;;;;;5075211;28;20200;-80
2021/07/16 13:44:32;;;;;;;12.90;4.93;;;;;;;;;;5093724;28;20875;-80
2021/07/16 13:46:58;;;;;;;8.47;4.70;;;;;;;;;;5093450;28;20175;-80
2021/07/16 13:49:24;;;;;;;11.17;5.00;;;;;;;;;;5075143;28;20238;-80
2021/07/16 13:51:51;;;;;;;9.87;4.40;;;;;;;;;;5074524;28;20176;-80
2021/07/16 13:54:17;;;;;;;7.10;4.83;;;;;;;;;;5074837;28;20251;-80
2021/07/16 13:56:43;;;;;;;7.43;4.90;;;;;;;;;;5074587;28;20623;-80
2021/07/16 13:59:09;;;;;;;9.80;5.23;;;;;;;;;;5093153;28;20294;-80
2021/07/16 14:01:36;;;;;;;9.93;4.90;;;;;;;;;;5074811;28;20215;-80
2021/07/16 14:04:02;;;;;;;8.37;5.07;;;;;;;;;;5074889;28;20225;-80
2021/07/16 14:06:28;;;;;;;7.23;4.50;;;;;;;;;;5091910;28;20666;-80
2021/07/16 14:08:54;;;;;;;8.47;4.47;;;;;;;;;;5074381;28;20168;-80
2021/07/16 14:11:21;;;;;;;7.50;4.47;;;;;;;;;;5092416;28;20222;-80
2021/07/16 14:13:47;;;;;;;10.27;5.23;;;;;;;;;;5074521;28;20208;-80
2021/07/16 14:16:13;;;;;;;8.07;4.90;;;;;;;;;;5093173;28;20179;-80
2021/07/16 14:18:39;;;;;;;10.00;4.97;;;;;;;;;;5074446;28;20171;-80
2021/07/16 14:21:05;;;;;;;11.60;6.07;;;;;;;;;;5074112;28;20203;-80
2021/07/16 14:23:31;;;;;;;9.40;4.57;;;;;;;;;;5092744;28;20179;-80
2021/07/16 14:25:57;;;;;;;13.03;4.70;;;;;;;;;;5093018;28;20164;-80
2021/07/16 14:28:23;;;;;;;10.23;5.90;;;;;;;;;;5074117;28;20171;-80
2021/07/16 14:30:51;;;;;;;9.57;4.57;;;;;;;;;;5074167;28;20180;-80
2021/07/16 14:33:17;;;;;;;10.10;4.63;;;;;;;;;;5070608;28;20185;-80
2021/07/16 14:35:43;;;;;;;11.40;5.30;;;;;;;;;;5070563;28;20271;-80
2021/07/16 14:38:09;;;;;;;9.00;5.03;;;;;;;;;;5088007;28;20168;-80